createdAt,value
2019-03-23T00:01:17.284Z,90.40
2019-03-23T00:03:48.910Z,90.50
2019-03-23T00:06:30.432Z,90.40
2019-03-23T00:08:54.031Z,90.30
2019-03-23T00:11:25.706Z,90.50
2019-03-23T00:13:57.286Z,90.80
2019-03-23T00:16:29.063Z,90.60
2019-03-23T00:19:00.664Z,90.60
2019-03-23T00:21:32.223Z,90.60
2019-03-23T00:24:03.943Z,90.80
2019-03-23T00:26:35.568Z,90.90
2019-03-23T00:29:07.245Z,91.00
2019-03-23T00:31:38.854Z,91.20
2019-03-23T00:34:10.593Z,91.20
2019-03-23T00:36:42.357Z,91.40
2019-03-23T00:39:13.972Z,91.70
2019-03-23T00:41:45.625Z,91.70
2019-03-23T00:44:17.241Z,91.80
2019-03-23T00:46:48.840Z,92.00
2019-03-23T00:49:20.444Z,92.10
2019-03-23T00:51:52.012Z,92.20
2019-03-23T00:54:23.660Z,92.20
2019-03-23T00:56:55.300Z,92.00
2019-03-23T00:59:27.027Z,92.10
2019-03-23T01:01:59.807Z,92.20
2019-03-23T01:04:31.379Z,92.30
2019-03-23T01:07:03.223Z,92.30
2019-03-23T01:09:34.807Z,92.30
2019-03-23T01:12:06.442Z,92.40
2019-03-23T01:14:38.094Z,92.50
2019-03-23T01:17:09.740Z,92.60
2019-03-23T01:19:41.426Z,92.70
2019-03-23T01:22:13.002Z,93.00
2019-03-23T01:24:45.717Z,93.20
2019-03-23T01:27:17.298Z,93.20
2019-03-23T01:29:48.915Z,93.40
2019-03-23T01:32:20.576Z,93.50
2019-03-23T01:34:52.130Z,93.60
2019-03-23T01:37:23.756Z,93.80
2019-03-23T01:39:55.314Z,94.00
2019-03-23T01:42:26.856Z,94.00
2019-03-23T01:44:58.503Z,94.00
2019-03-23T01:47:30.331Z,94.10
2019-03-23T01:50:02.952Z,94.20
2019-03-23T01:52:34.508Z,94.20
2019-03-23T01:55:06.651Z,94.30
2019-03-23T01:57:38.400Z,94.30
2019-03-23T02:00:10.403Z,94.60
2019-03-23T02:02:42.059Z,94.30
2019-03-23T02:05:13.879Z,94.40
2019-03-23T02:07:45.466Z,94.40
2019-03-23T02:10:17.263Z,94.40
2019-03-23T02:12:49.054Z,94.50
2019-03-23T02:15:20.643Z,94.50
2019-03-23T02:17:52.172Z,94.60
2019-03-23T02:20:23.903Z,94.70
2019-03-23T02:22:55.436Z,94.70
2019-03-23T02:25:27.080Z,94.80
2019-03-23T02:27:58.808Z,94.90
2019-03-23T02:30:30.380Z,94.90
2019-03-23T02:33:02.048Z,95.00
2019-03-23T02:35:33.682Z,95.10
2019-03-23T02:38:05.319Z,95.20
2019-03-23T02:40:37.591Z,95.30
2019-03-23T02:43:09.250Z,95.40
2019-03-23T02:45:40.913Z,95.50
2019-03-23T02:48:12.532Z,95.50
2019-03-23T02:50:45.262Z,95.60
2019-03-23T02:53:16.914Z,95.70
2019-03-23T02:55:48.547Z,95.70
2019-03-23T02:58:20.102Z,95.80
2019-03-23T03:00:52.012Z,95.80
2019-03-23T03:03:23.630Z,95.90
2019-03-23T03:05:55.294Z,95.90
2019-03-23T03:08:27.258Z,95.90
2019-03-23T03:10:59.002Z,95.80
2019-03-23T03:13:30.633Z,95.80
2019-03-23T03:16:02.304Z,95.80
2019-03-23T03:18:33.952Z,95.80
2019-03-23T03:21:05.731Z,95.90
2019-03-23T03:23:37.318Z,95.80
2019-03-23T03:26:08.859Z,95.90
2019-03-23T03:28:40.425Z,95.80
2019-03-23T03:31:12.060Z,95.90
2019-03-23T03:33:43.708Z,96.00
2019-03-23T03:36:15.312Z,96.10
2019-03-23T03:38:47.027Z,96.20
2019-03-23T03:41:18.727Z,96.10
2019-03-23T03:43:50.449Z,96.10
2019-03-23T03:46:22.091Z,96.10
2019-03-23T03:48:53.888Z,96.20
2019-03-23T03:51:25.627Z,96.30
2019-03-23T03:53:57.284Z,96.40
2019-03-23T03:56:28.916Z,96.50
2019-03-23T03:59:00.567Z,96.50
2019-03-23T04:01:32.123Z,96.50
2019-03-23T04:04:03.879Z,96.50
2019-03-23T04:06:35.439Z,96.60
2019-03-23T04:09:07.833Z,96.70
2019-03-23T04:11:40.520Z,96.70
2019-03-23T04:14:12.106Z,96.70
2019-03-23T04:16:43.721Z,96.80
2019-03-23T04:19:15.377Z,96.90
2019-03-23T04:21:47.009Z,96.90
2019-03-23T04:24:18.682Z,96.90
2019-03-23T04:26:50.275Z,96.90
2019-03-23T04:29:23.072Z,96.80
2019-03-23T04:31:54.687Z,96.80
2019-03-23T04:34:26.232Z,96.70
2019-03-23T04:36:57.895Z,96.60
2019-03-23T04:39:29.435Z,96.60
2019-03-23T04:42:00.989Z,96.60
2019-03-23T04:44:32.526Z,96.60
2019-03-23T04:47:04.188Z,96.50
2019-03-23T04:49:36.115Z,96.50
2019-03-23T04:52:07.763Z,96.50
2019-03-23T04:54:39.344Z,96.50
2019-03-23T04:57:10.899Z,96.80
2019-03-23T04:59:42.504Z,96.50
2019-03-23T05:02:14.258Z,96.50
2019-03-23T05:04:45.875Z,96.50
2019-03-23T05:07:17.441Z,96.50
2019-03-23T05:09:49.018Z,96.50
2019-03-23T05:12:20.579Z,96.50
2019-03-23T05:14:52.146Z,96.60
2019-03-23T05:17:23.879Z,96.60
2019-03-23T05:19:55.517Z,96.60
2019-03-23T05:22:27.224Z,96.60
2019-03-23T05:24:58.863Z,96.70
2019-03-23T05:27:30.481Z,96.70
2019-03-23T05:30:02.044Z,96.70
2019-03-23T05:32:33.851Z,96.70
2019-03-23T05:35:06.038Z,96.90
2019-03-23T05:37:38.645Z,97.10
2019-03-23T05:40:11.263Z,97.40
2019-03-23T05:42:42.893Z,97.60
2019-03-23T05:45:14.589Z,97.90
2019-03-23T05:47:46.149Z,98.30
2019-03-23T05:50:17.699Z,98.60
2019-03-23T05:52:49.353Z,99.00
2019-03-23T05:55:20.927Z,99.70
2019-03-23T05:57:52.571Z,99.90
2019-03-23T06:00:24.159Z,99.90
2019-03-23T06:02:55.715Z,99.90
2019-03-23T06:05:27.296Z,99.90
2019-03-23T06:07:58.920Z,99.90
2019-03-23T06:10:30.571Z,99.90
2019-03-23T06:13:02.119Z,99.90
2019-03-23T06:15:33.752Z,99.90
2019-03-23T06:18:05.719Z,99.90
2019-03-23T06:20:37.326Z,99.90
2019-03-23T06:23:09.131Z,99.90
2019-03-23T06:25:40.782Z,99.70
2019-03-23T06:28:12.472Z,99.40
2019-03-23T06:30:44.160Z,99.30
2019-03-23T06:33:15.704Z,99.00
2019-03-23T06:35:47.433Z,98.70
2019-03-23T06:38:19.057Z,98.60
2019-03-23T06:40:50.726Z,98.50
2019-03-23T06:43:22.311Z,98.20
2019-03-23T06:45:53.950Z,98.00
2019-03-23T06:48:26.544Z,97.70
2019-03-23T06:50:58.104Z,97.30
2019-03-23T06:53:29.660Z,96.90
2019-03-23T06:56:01.391Z,96.30
2019-03-23T06:58:33.114Z,95.60
2019-03-23T07:01:04.880Z,95.30
2019-03-23T07:03:37.452Z,95.30
2019-03-23T07:06:09.090Z,95.10
2019-03-23T07:08:40.660Z,94.80
2019-03-23T07:11:12.392Z,94.60
2019-03-23T07:13:44.096Z,94.30
2019-03-23T07:16:15.794Z,94.00
2019-03-23T07:18:47.438Z,93.60
2019-03-23T07:21:20.155Z,93.20
2019-03-23T07:23:51.838Z,92.70
2019-03-23T07:26:23.403Z,92.10
2019-03-23T07:28:54.961Z,91.40
2019-03-23T07:31:26.537Z,91.00
2019-03-23T07:33:58.206Z,90.30
2019-03-23T07:36:29.863Z,89.60
2019-03-23T07:39:01.556Z,87.90
2019-03-23T07:41:33.561Z,86.80
2019-03-23T07:44:05.375Z,84.80
2019-03-23T07:46:36.995Z,83.20
2019-03-23T07:49:08.641Z,81.70
2019-03-23T07:51:40.275Z,80.50
2019-03-23T07:54:11.842Z,79.80
2019-03-23T07:56:43.476Z,78.70
2019-03-23T07:59:15.129Z,77.30
2019-03-23T08:01:46.762Z,76.10
2019-03-23T08:04:18.571Z,74.90
2019-03-23T08:06:50.203Z,73.70
2019-03-23T08:09:23.566Z,72.70
2019-03-23T08:11:55.392Z,71.80
2019-03-23T08:14:27.280Z,70.90
2019-03-23T08:16:58.971Z,69.80
2019-03-23T08:19:30.535Z,69.00
2019-03-23T08:22:02.159Z,67.90
2019-03-23T08:24:33.800Z,67.00
2019-03-23T08:27:05.611Z,66.20
2019-03-23T08:29:37.275Z,65.20
2019-03-23T08:32:09.011Z,64.10
2019-03-23T08:34:40.664Z,62.80
2019-03-23T08:37:12.327Z,61.80
2019-03-23T08:39:48.368Z,61.60
2019-03-23T08:42:17.818Z,60.70
2019-03-23T08:44:50.041Z,59.70
2019-03-23T08:47:22.267Z,58.80
2019-03-23T08:49:54.536Z,57.90
2019-03-23T08:52:28.910Z,57.40
2019-03-23T08:55:00.591Z,56.60
2019-03-23T08:57:32.756Z,56.10
2019-03-23T09:00:06.413Z,55.50
2019-03-23T09:02:40.323Z,54.90
2019-03-23T09:05:12.712Z,54.10
2019-03-23T09:07:44.980Z,53.40
2019-03-23T09:10:17.162Z,52.60
2019-03-23T09:12:50.651Z,52.10
2019-03-23T09:15:22.783Z,51.50
2019-03-23T09:17:54.943Z,50.90
2019-03-23T09:20:29.383Z,50.30
2019-03-23T09:23:02.033Z,49.90
2019-03-23T09:25:34.256Z,49.40
2019-03-23T09:28:06.478Z,48.80
2019-03-23T09:30:38.063Z,48.20
2019-03-23T09:33:09.862Z,47.80
2019-03-23T09:35:42.087Z,47.30
2019-03-23T09:38:13.747Z,46.70
2019-03-23T09:40:45.371Z,46.20
2019-03-23T09:43:17.506Z,45.50
2019-03-23T09:45:49.129Z,44.80
2019-03-23T09:48:20.695Z,44.30
2019-03-23T09:50:52.313Z,43.80
2019-03-23T09:53:24.036Z,43.30
2019-03-23T09:55:55.592Z,42.80
2019-03-23T09:58:27.252Z,42.90
2019-03-23T10:00:58.903Z,41.80
2019-03-23T10:03:30.538Z,41.60
2019-03-23T10:06:02.186Z,41.20
2019-03-23T10:08:33.898Z,40.60
2019-03-23T10:11:05.530Z,40.00
2019-03-23T10:13:37.673Z,39.40
2019-03-23T10:16:09.298Z,39.10
2019-03-23T10:18:40.883Z,38.90
2019-03-23T10:21:12.533Z,38.70
2019-03-23T10:23:44.212Z,38.20
2019-03-23T10:26:15.843Z,37.90
2019-03-23T10:28:47.427Z,37.70
2019-03-23T10:31:19.064Z,37.60
2019-03-23T10:33:50.637Z,37.40
2019-03-23T10:36:22.412Z,37.20
2019-03-23T10:38:54.043Z,36.90
2019-03-23T10:41:25.620Z,36.60
2019-03-23T10:43:57.177Z,36.40
2019-03-23T10:46:29.820Z,36.20
2019-03-23T10:49:01.474Z,35.90
2019-03-23T10:51:33.224Z,35.60
2019-03-23T10:54:04.954Z,35.10
2019-03-23T10:56:36.595Z,34.70
2019-03-23T10:59:08.821Z,34.60
2019-03-23T11:01:41.051Z,34.30
2019-03-23T11:04:13.235Z,34.20
2019-03-23T11:06:45.440Z,33.90
2019-03-23T11:09:17.623Z,33.80
2019-03-23T11:11:49.866Z,33.50
2019-03-23T11:14:22.227Z,33.10
2019-03-23T11:16:54.455Z,33.10
2019-03-23T11:19:26.676Z,32.70
2019-03-23T11:21:58.839Z,32.30
2019-03-23T11:24:31.070Z,32.10
2019-03-23T11:27:03.383Z,31.90
2019-03-23T11:29:35.518Z,31.80
2019-03-23T11:32:07.749Z,31.30
2019-03-23T11:34:39.310Z,31.00
2019-03-23T11:37:10.947Z,30.50
2019-03-23T11:39:42.739Z,30.10
2019-03-23T11:42:14.316Z,30.00
2019-03-23T11:44:45.913Z,29.90
2019-03-23T11:47:17.704Z,29.90
2019-03-23T11:49:49.359Z,30.00
2019-03-23T11:52:20.940Z,30.00
2019-03-23T11:54:52.510Z,30.10
2019-03-23T11:57:24.088Z,30.20
2019-03-23T11:59:55.655Z,30.40
2019-03-23T12:02:27.207Z,30.60
2019-03-23T12:04:58.811Z,30.80
2019-03-23T12:07:30.518Z,31.00
2019-03-23T12:10:02.092Z,31.30
2019-03-23T12:12:33.711Z,31.50
2019-03-23T12:15:06.076Z,31.80
2019-03-23T12:17:37.823Z,32.00
2019-03-23T12:20:09.684Z,32.20
2019-03-23T12:22:41.335Z,32.60
2019-03-23T12:25:12.969Z,32.90
2019-03-23T12:27:44.627Z,33.00
2019-03-23T12:30:17.227Z,34.00
2019-03-23T12:32:48.963Z,33.50
2019-03-23T12:35:22.307Z,33.70
2019-03-23T12:37:54.864Z,33.80
2019-03-23T12:40:26.419Z,33.90
2019-03-23T12:42:58.035Z,34.20
2019-03-23T12:45:29.679Z,34.40
2019-03-23T12:48:01.312Z,35.10
2019-03-23T12:50:34.062Z,34.80
2019-03-23T12:53:05.734Z,35.00
2019-03-23T12:55:37.404Z,35.20
2019-03-23T12:58:09.051Z,35.50
2019-03-23T13:00:40.659Z,35.80
2019-03-23T13:03:12.336Z,35.90
2019-03-23T13:05:43.996Z,36.10
2019-03-23T13:08:15.671Z,36.20
2019-03-23T13:10:47.306Z,36.30
2019-03-23T13:13:18.983Z,36.50
2019-03-23T13:15:50.700Z,36.60
2019-03-23T13:18:27.140Z,36.90
2019-03-23T13:20:55.735Z,36.90
2019-03-23T13:23:27.434Z,37.10
2019-03-23T13:25:59.111Z,37.30
2019-03-23T13:28:30.659Z,37.30
2019-03-23T13:31:02.243Z,37.50
2019-03-23T13:33:33.892Z,37.60
2019-03-23T13:36:06.087Z,37.80
2019-03-23T13:38:37.729Z,38.10
2019-03-23T13:41:09.512Z,38.10
2019-03-23T13:43:41.086Z,38.30
2019-03-23T13:46:12.714Z,38.30
2019-03-23T13:48:44.298Z,38.40
2019-03-23T13:51:15.956Z,38.40
2019-03-23T13:53:47.622Z,38.50
2019-03-23T13:56:19.289Z,38.60
2019-03-23T13:58:51.037Z,38.70
2019-03-23T14:01:22.601Z,38.70
2019-03-23T14:03:54.175Z,39.00
2019-03-23T14:06:25.834Z,39.00
2019-03-23T14:08:57.558Z,39.10
2019-03-23T14:11:29.256Z,39.10
2019-03-23T14:14:00.879Z,39.90
2019-03-23T14:16:32.458Z,39.30
2019-03-23T14:19:04.078Z,39.50
2019-03-23T14:21:35.698Z,39.60
2019-03-23T14:24:07.288Z,39.80
2019-03-23T14:26:38.873Z,39.90
2019-03-23T14:29:10.511Z,40.00
2019-03-23T14:31:42.260Z,40.20
2019-03-23T14:34:13.895Z,40.30
2019-03-23T14:36:45.606Z,40.40
2019-03-23T14:39:17.156Z,40.50
2019-03-23T14:41:48.811Z,40.50
2019-03-23T14:44:20.382Z,40.60
2019-03-23T14:46:52.050Z,40.80
2019-03-23T14:49:23.689Z,40.70
2019-03-23T14:51:55.263Z,40.90
2019-03-23T14:54:26.935Z,40.90
2019-03-23T14:56:58.616Z,41.00
2019-03-23T14:59:30.176Z,41.00
2019-03-23T15:02:01.825Z,41.20
2019-03-23T15:04:33.502Z,41.20
2019-03-23T15:07:05.145Z,41.20
2019-03-23T15:09:36.816Z,41.30
2019-03-23T15:12:15.103Z,41.40
2019-03-23T15:14:41.672Z,41.50
2019-03-23T15:17:13.235Z,41.50
2019-03-23T15:19:44.809Z,41.60
2019-03-23T15:22:16.372Z,41.70
2019-03-23T15:24:47.939Z,41.80
2019-03-23T15:27:19.646Z,41.70
2019-03-23T15:29:51.251Z,41.70
2019-03-23T15:32:22.824Z,41.90
2019-03-23T15:34:54.438Z,42.00
2019-03-23T15:37:26.080Z,42.20
2019-03-23T15:39:57.641Z,42.60
2019-03-23T15:42:29.280Z,42.60
2019-03-23T15:45:01.041Z,42.80
2019-03-23T15:47:32.700Z,43.10
2019-03-23T15:50:04.930Z,43.20
2019-03-23T15:52:36.578Z,43.30
2019-03-23T15:55:10.012Z,43.30
2019-03-23T15:57:41.608Z,43.50
2019-03-23T16:00:14.211Z,43.60
2019-03-23T16:02:45.860Z,43.70
2019-03-23T16:05:17.441Z,43.80
2019-03-23T16:07:49.068Z,43.90
2019-03-23T16:10:20.670Z,44.00
2019-03-23T16:12:52.311Z,44.20
2019-03-23T16:15:23.875Z,44.20
2019-03-23T16:17:55.514Z,44.30
2019-03-23T16:20:27.087Z,44.60
2019-03-23T16:22:58.640Z,44.60
2019-03-23T16:25:30.295Z,44.70
2019-03-23T16:28:01.951Z,45.00
2019-03-23T16:30:34.226Z,45.20
2019-03-23T16:33:05.911Z,45.20
2019-03-23T16:35:37.477Z,45.40
2019-03-23T16:38:09.144Z,45.50
2019-03-23T16:40:40.768Z,45.60
2019-03-23T16:43:12.346Z,45.70
2019-03-23T16:45:44.055Z,45.70
2019-03-23T16:48:15.706Z,45.70
2019-03-23T16:50:47.289Z,45.70
2019-03-23T16:53:18.859Z,46.40
2019-03-23T16:55:50.521Z,45.80
2019-03-23T16:58:22.084Z,45.90
2019-03-23T17:00:53.762Z,45.90
2019-03-23T17:03:25.453Z,46.10
2019-03-23T17:05:57.095Z,46.30
2019-03-23T17:08:28.767Z,47.00
2019-03-23T17:11:00.391Z,47.90
2019-03-23T17:13:32.033Z,48.60
2019-03-23T17:16:03.671Z,48.90
2019-03-23T17:18:35.280Z,49.30
2019-03-23T17:21:06.886Z,49.30
2019-03-23T17:23:38.531Z,49.50
2019-03-23T17:26:11.290Z,49.60
2019-03-23T17:28:43.048Z,49.80
2019-03-23T17:31:14.724Z,49.90
2019-03-23T17:33:46.262Z,50.00
2019-03-23T17:36:17.847Z,50.20
2019-03-23T17:38:49.492Z,50.30
2019-03-23T17:41:21.071Z,50.50
2019-03-23T17:43:52.656Z,50.20
2019-03-23T17:46:24.308Z,50.30
2019-03-23T17:48:55.955Z,50.50
2019-03-23T17:51:27.541Z,50.40
2019-03-23T17:53:59.163Z,50.30
2019-03-23T17:56:30.800Z,50.20
2019-03-23T17:59:02.372Z,50.20
2019-03-23T18:01:34.105Z,50.20
2019-03-23T18:04:05.709Z,50.30
2019-03-23T18:06:37.443Z,50.20
2019-03-23T18:09:09.337Z,50.30
2019-03-23T18:11:40.990Z,50.30
2019-03-23T18:14:12.566Z,50.30
2019-03-23T18:16:44.191Z,50.30
2019-03-23T18:19:15.768Z,50.40
2019-03-23T18:21:47.477Z,50.50
2019-03-23T18:24:19.130Z,50.60
2019-03-23T18:26:50.795Z,50.60
2019-03-23T18:29:22.514Z,50.80
2019-03-23T18:31:54.104Z,50.90
2019-03-23T18:34:25.759Z,50.90
2019-03-23T18:36:58.997Z,51.00
2019-03-23T18:39:30.595Z,51.10
2019-03-23T18:42:02.241Z,51.30
2019-03-23T18:44:34.099Z,51.40
2019-03-23T18:47:05.760Z,51.50
2019-03-23T18:49:37.470Z,51.50
2019-03-23T18:52:09.203Z,51.70
2019-03-23T18:54:40.769Z,51.70
2019-03-23T18:57:12.445Z,52.50
2019-03-23T18:59:44.106Z,51.80
2019-03-23T19:02:15.686Z,51.80
2019-03-23T19:04:49.610Z,51.90
2019-03-23T19:07:21.765Z,51.90
2019-03-23T19:09:53.369Z,51.90
2019-03-23T19:12:25.194Z,51.90
2019-03-23T19:14:56.791Z,52.00
2019-03-23T19:17:28.432Z,52.10
2019-03-23T19:20:00.082Z,52.10
2019-03-23T19:22:31.655Z,52.20
2019-03-23T19:25:03.216Z,52.30
2019-03-23T19:27:34.949Z,52.40
2019-03-23T19:30:07.258Z,52.50
2019-03-23T19:32:40.644Z,52.50
2019-03-23T19:35:12.676Z,52.60
2019-03-23T19:37:44.517Z,52.60
2019-03-23T19:40:16.389Z,52.80
2019-03-23T19:42:48.328Z,52.80
2019-03-23T19:45:20.004Z,52.80
2019-03-23T19:47:52.258Z,52.80
2019-03-23T19:50:24.838Z,52.70
2019-03-23T19:52:56.545Z,52.90
2019-03-23T19:55:28.203Z,53.00
2019-03-23T19:58:01.097Z,53.00
2019-03-23T20:00:32.831Z,53.20
2019-03-23T20:03:04.505Z,53.30
2019-03-23T20:05:36.226Z,53.60
2019-03-23T20:08:07.988Z,53.80
2019-03-23T20:10:39.707Z,53.80
2019-03-23T20:13:11.292Z,54.00
2019-03-23T20:15:43.067Z,53.90
2019-03-23T20:18:15.659Z,54.10
2019-03-23T20:20:48.503Z,54.30
2019-03-23T20:23:20.323Z,54.50
2019-03-23T20:25:51.894Z,54.60
2019-03-23T20:28:23.489Z,54.70
2019-03-23T20:30:55.756Z,54.70
2019-03-23T20:33:27.406Z,54.90
2019-03-23T20:36:00.392Z,55.10
2019-03-23T20:38:32.156Z,55.10
2019-03-23T20:41:04.018Z,55.20
2019-03-23T20:43:35.689Z,55.30
2019-03-23T20:46:08.645Z,55.40
2019-03-23T20:48:40.873Z,55.50
2019-03-23T20:51:13.125Z,55.60
2019-03-23T20:53:45.312Z,55.80
2019-03-23T20:56:17.271Z,55.90
2019-03-23T20:58:49.508Z,56.00
2019-03-23T21:01:22.502Z,56.10
2019-03-23T21:03:54.271Z,56.10
2019-03-23T21:06:25.888Z,56.20
2019-03-23T21:08:57.707Z,56.30
2019-03-23T21:11:30.551Z,56.40
2019-03-23T21:14:02.119Z,56.50
2019-03-23T21:16:33.803Z,57.20
2019-03-23T21:19:05.457Z,56.80
2019-03-23T21:21:37.085Z,56.90
2019-03-23T21:24:09.273Z,57.10
2019-03-23T21:26:40.850Z,57.30
2019-03-23T21:29:12.452Z,57.50
2019-03-23T21:31:44.100Z,57.50
2019-03-23T21:34:16.191Z,57.70
2019-03-23T21:36:47.775Z,57.90
2019-03-23T21:39:19.424Z,58.10
2019-03-23T21:41:51.071Z,58.20
2019-03-23T21:44:30.606Z,58.30
2019-03-23T21:46:56.014Z,58.30
2019-03-23T21:49:28.144Z,58.40
2019-03-23T21:51:59.810Z,58.50
2019-03-23T21:54:31.452Z,58.60
2019-03-23T21:57:03.284Z,58.70
2019-03-23T21:59:34.952Z,58.70
2019-03-23T22:02:06.605Z,58.90
2019-03-23T22:04:38.147Z,58.90
2019-03-23T22:07:09.809Z,59.10
2019-03-23T22:09:41.380Z,59.20
2019-03-23T22:12:13.043Z,59.30
2019-03-23T22:14:44.683Z,59.40
2019-03-23T22:17:16.435Z,59.50
2019-03-23T22:19:48.052Z,59.70
2019-03-23T22:22:19.651Z,59.80
2019-03-23T22:24:51.296Z,59.90
2019-03-23T22:27:23.055Z,60.00
2019-03-23T22:29:54.796Z,60.10
2019-03-23T22:32:26.375Z,60.20
2019-03-23T22:34:57.995Z,60.40
2019-03-23T22:37:29.578Z,60.50
2019-03-23T22:40:01.240Z,60.60
2019-03-23T22:42:34.143Z,60.60
2019-03-23T22:45:07.167Z,60.70
2019-03-23T22:47:38.875Z,60.90
2019-03-23T22:50:11.143Z,60.90
2019-03-23T22:52:42.720Z,60.90
2019-03-23T22:55:14.646Z,61.00
2019-03-23T22:57:46.208Z,61.20
2019-03-23T23:00:21.736Z,61.10
2019-03-23T23:02:54.996Z,61.20
2019-03-23T23:05:26.626Z,61.20
2019-03-23T23:07:58.517Z,61.30
2019-03-23T23:10:30.202Z,61.30
2019-03-23T23:13:01.919Z,61.50
2019-03-23T23:15:33.549Z,61.60
2019-03-23T23:18:05.326Z,61.80
2019-03-23T23:20:36.971Z,61.90
2019-03-23T23:23:08.981Z,62.20
2019-03-23T23:25:41.165Z,62.40
2019-03-23T23:28:13.188Z,62.50
2019-03-23T23:30:45.414Z,62.70
2019-03-23T23:33:17.007Z,62.90
2019-03-23T23:35:48.660Z,63.10
2019-03-23T23:38:20.333Z,63.20
2019-03-23T23:40:51.932Z,63.50
2019-03-23T23:43:23.689Z,63.70
2019-03-23T23:45:56.295Z,63.80
2019-03-23T23:48:28.349Z,64.00
2019-03-23T23:50:59.949Z,64.00
2019-03-23T23:53:31.547Z,64.10
2019-03-23T23:56:03.146Z,64.20
2019-03-23T23:58:34.732Z,64.30
